createdAt,value
2019-02-21T00:00:10.316Z,1018.17
2019-02-21T00:00:37.434Z,1018.16
2019-02-21T00:01:03.536Z,1018.15
2019-02-21T00:01:29.644Z,1018.15
2019-02-21T00:01:55.754Z,1018.16
2019-02-21T00:02:21.858Z,1018.19
2019-02-21T00:02:47.993Z,1018.17
2019-02-21T00:03:14.122Z,1018.14
2019-02-21T00:03:40.252Z,1018.16
2019-02-21T00:04:06.375Z,1018.16
2019-02-21T00:04:32.481Z,1018.15
2019-02-21T00:04:58.594Z,1018.18
2019-02-21T00:05:24.695Z,1018.23
2019-02-21T00:05:50.823Z,1018.2
2019-02-21T00:06:16.931Z,1018.22
2019-02-21T00:06:43.076Z,1018.24
2019-02-21T00:07:09.181Z,1018.26
2019-02-21T00:07:35.282Z,1018.28
2019-02-21T00:08:01.418Z,1018.28
2019-02-21T00:08:27.534Z,1018.3
2019-02-21T00:08:53.696Z,1018.28
2019-02-21T00:09:19.799Z,1018.3
2019-02-21T00:09:45.939Z,1018.28
2019-02-21T00:10:12.074Z,1018.28
2019-02-21T00:10:38.177Z,1018.29
2019-02-21T00:11:04.320Z,1018.28
2019-02-21T00:11:30.432Z,1018.29
2019-02-21T00:11:56.599Z,1018.3
2019-02-21T00:12:22.701Z,1018.29
2019-02-21T00:12:48.807Z,1018.31
2019-02-21T00:13:14.940Z,1018.29
2019-02-21T00:13:41.074Z,1018.23
2019-02-21T00:14:07.183Z,1018.25
2019-02-21T00:14:33.279Z,1018.25
2019-02-21T00:14:59.387Z,1018.27
2019-02-21T00:15:25.539Z,1018.3
2019-02-21T00:15:51.647Z,1018.29
2019-02-21T00:16:17.748Z,1018.31
2019-02-21T00:16:43.886Z,1018.32
2019-02-21T00:17:10.039Z,1018.28
2019-02-21T00:17:36.164Z,1018.26
2019-02-21T00:18:02.374Z,1018.29
2019-02-21T00:18:28.514Z,1018.25
2019-02-21T00:18:54.624Z,1018.3
2019-02-21T00:19:20.732Z,1018.26
2019-02-21T00:19:46.892Z,1018.31
2019-02-21T00:20:13.009Z,1018.27
2019-02-21T00:20:39.113Z,1018.25
2019-02-21T00:21:05.248Z,1018.25
2019-02-21T00:21:31.354Z,1018.26
2019-02-21T00:21:57.454Z,1018.26
2019-02-21T00:22:23.595Z,1018.26
2019-02-21T00:22:49.707Z,1018.26
2019-02-21T00:23:15.846Z,1018.26
2019-02-21T00:23:41.948Z,1018.24
2019-02-21T00:24:08.062Z,1018.27
2019-02-21T00:24:34.185Z,1018.22
2019-02-21T00:25:00.404Z,1018.25
2019-02-21T00:25:26.475Z,1018.25
2019-02-21T00:25:52.576Z,1018.26
2019-02-21T00:26:18.722Z,1018.23
2019-02-21T00:26:44.821Z,1018.24
2019-02-21T00:27:10.953Z,1018.25
2019-02-21T00:27:37.085Z,1018.29
2019-02-21T00:28:03.195Z,1018.24
2019-02-21T00:28:29.299Z,1018.26
2019-02-21T00:28:55.442Z,1018.25
2019-02-21T00:29:21.577Z,1018.27
2019-02-21T00:29:47.686Z,1018.25
2019-02-21T00:30:13.921Z,1018.29
2019-02-21T00:30:41.043Z,1018.24
2019-02-21T00:31:07.170Z,1018.23
2019-02-21T00:31:33.303Z,1018.23
2019-02-21T00:31:59.445Z,1018.21
2019-02-21T00:32:25.585Z,1018.24
2019-02-21T00:32:51.691Z,1018.21
2019-02-21T00:33:17.827Z,1018.21
2019-02-21T00:33:43.968Z,1018.18
2019-02-21T00:34:10.075Z,1018.21
2019-02-21T00:34:36.204Z,1018.23
2019-02-21T00:35:02.323Z,1018.22
2019-02-21T00:35:28.443Z,1018.21
2019-02-21T00:35:54.576Z,1018.24
2019-02-21T00:36:20.685Z,1018.26
2019-02-21T00:36:46.795Z,1018.25
2019-02-21T00:37:12.899Z,1018.25
2019-02-21T00:37:38.999Z,1018.26
2019-02-21T00:38:05.116Z,1018.27
2019-02-21T00:38:31.235Z,1018.26
2019-02-21T00:38:57.344Z,1018.24
2019-02-21T00:39:23.450Z,1018.24
2019-02-21T00:39:49.564Z,1018.27
2019-02-21T00:40:15.769Z,1018.23
2019-02-21T00:40:41.880Z,1018.24
2019-02-21T00:41:07.982Z,1018.25
2019-02-21T00:41:34.095Z,1018.24
2019-02-21T00:42:00.216Z,1018.24
2019-02-21T00:42:26.322Z,1018.25
2019-02-21T00:42:52.427Z,1018.26
2019-02-21T00:43:18.535Z,1018.27
2019-02-21T00:43:44.639Z,1018.23
2019-02-21T00:44:10.751Z,1018.21
2019-02-21T00:44:36.853Z,1018.27
2019-02-21T00:45:02.956Z,1018.25
2019-02-21T00:45:29.065Z,1018.19
2019-02-21T00:45:55.203Z,1018.22
2019-02-21T00:46:21.310Z,1018.25
2019-02-21T00:46:47.415Z,1018.26
2019-02-21T00:47:13.521Z,1018.28
2019-02-21T00:47:39.656Z,1018.26
2019-02-21T00:48:05.765Z,1018.25
2019-02-21T00:48:31.893Z,1018.25
2019-02-21T00:48:58.004Z,1018.26
2019-02-21T00:49:24.110Z,1018.21
2019-02-21T00:49:50.222Z,1018.22
2019-02-21T00:50:16.360Z,1018.28
2019-02-21T00:50:42.468Z,1018.24
2019-02-21T00:51:08.574Z,1018.23
2019-02-21T00:51:34.706Z,1018.21
2019-02-21T00:52:02.622Z,1018.22
2019-02-21T00:52:27.934Z,1018.31
2019-02-21T00:52:54.036Z,1018.28
2019-02-21T00:53:20.148Z,1018.3
2019-02-21T00:53:46.256Z,1018.35
2019-02-21T00:54:12.387Z,1018.29
2019-02-21T00:54:38.492Z,1018.25
2019-02-21T00:55:04.596Z,1018.28
2019-02-21T00:55:31.701Z,1018.28
2019-02-21T00:55:57.805Z,1018.23
2019-02-21T00:56:23.912Z,1018.28
2019-02-21T00:56:50.014Z,1018.26
2019-02-21T00:57:16.155Z,1018.3
2019-02-21T00:57:42.258Z,1018.24
2019-02-21T00:58:08.401Z,1018.26
2019-02-21T00:58:34.524Z,1018.25
2019-02-21T00:59:00.640Z,1018.27
2019-02-21T00:59:26.766Z,1018.31
2019-02-21T00:59:52.875Z,1018.3
2019-02-21T01:00:18.974Z,1018.35
2019-02-21T01:00:47.093Z,1018.28
2019-02-21T01:01:13.174Z,1018.29
2019-02-21T01:01:39.310Z,1018.3
2019-02-21T01:02:05.493Z,1018.27
2019-02-21T01:02:31.600Z,1018.28
2019-02-21T01:02:57.755Z,1018.28
2019-02-21T01:03:23.867Z,1018.29
2019-02-21T01:03:49.975Z,1018.27
2019-02-21T01:04:16.088Z,1018.25
2019-02-21T01:04:42.212Z,1018.28
2019-02-21T01:05:08.319Z,1018.31
2019-02-21T01:05:34.420Z,1018.33
2019-02-21T01:06:00.525Z,1018.34
2019-02-21T01:06:26.659Z,1018.35
2019-02-21T01:06:52.763Z,1018.32
2019-02-21T01:07:18.876Z,1018.32
2019-02-21T01:07:45.007Z,1018.34
2019-02-21T01:08:11.107Z,1018.35
2019-02-21T01:08:37.211Z,1018.33
2019-02-21T01:09:03.320Z,1018.32
2019-02-21T01:09:29.424Z,1018.34
2019-02-21T01:09:55.522Z,1018.32
2019-02-21T01:10:21.636Z,1018.31
2019-02-21T01:10:47.741Z,1018.31
2019-02-21T01:11:13.880Z,1018.28
2019-02-21T01:11:39.981Z,1018.26
2019-02-21T01:12:06.090Z,1018.3
2019-02-21T01:12:32.224Z,1018.32
2019-02-21T01:12:58.329Z,1018.28
2019-02-21T01:13:24.441Z,1018.32
2019-02-21T01:13:50.551Z,1018.34
2019-02-21T01:14:16.654Z,1018.3
2019-02-21T01:14:42.759Z,1018.3
2019-02-21T01:15:08.902Z,1018.33
2019-02-21T01:15:35.060Z,1018.29
2019-02-21T01:16:01.169Z,1018.25
2019-02-21T01:16:27.375Z,1018.31
2019-02-21T01:16:53.558Z,1018.3
2019-02-21T01:17:19.668Z,1018.31
2019-02-21T01:17:45.792Z,1018.34
2019-02-21T01:18:11.930Z,1018.3
2019-02-21T01:18:38.038Z,1018.3
2019-02-21T01:19:04.169Z,1018.33
2019-02-21T01:19:30.268Z,1018.3
2019-02-21T01:19:56.378Z,1018.32
2019-02-21T01:20:22.514Z,1018.34
2019-02-21T01:20:48.642Z,1018.33
2019-02-21T01:21:14.755Z,1018.31
2019-02-21T01:21:40.890Z,1018.38
2019-02-21T01:22:06.997Z,1018.35
2019-02-21T01:22:33.097Z,1018.33
2019-02-21T01:22:59.204Z,1018.36
2019-02-21T01:23:25.331Z,1018.34
2019-02-21T01:23:51.473Z,1018.34
2019-02-21T01:24:18.594Z,1018.37
2019-02-21T01:24:44.730Z,1018.36
2019-02-21T01:25:10.884Z,1018.32
2019-02-21T01:25:36.998Z,1018.39
2019-02-21T01:26:03.106Z,1018.38
2019-02-21T01:26:29.214Z,1018.38
2019-02-21T01:26:55.316Z,1018.39
2019-02-21T01:27:21.437Z,1018.4
2019-02-21T01:27:47.544Z,1018.38
2019-02-21T01:28:13.651Z,1018.38
2019-02-21T01:28:39.757Z,1018.37
2019-02-21T01:29:05.862Z,1018.4
2019-02-21T01:29:31.980Z,1018.38
2019-02-21T01:29:58.098Z,1018.38
2019-02-21T01:30:24.219Z,1018.41
2019-02-21T01:30:56.813Z,1018.41
2019-02-21T01:31:18.191Z,1018.39
2019-02-21T01:31:44.298Z,1018.39
2019-02-21T01:32:10.409Z,1018.42
2019-02-21T01:32:36.500Z,1018.35
2019-02-21T01:33:02.606Z,1018.38
2019-02-21T01:33:28.718Z,1018.39
2019-02-21T01:33:54.826Z,1018.41
2019-02-21T01:34:20.928Z,1018.39
2019-02-21T01:34:47.043Z,1018.43
2019-02-21T01:35:13.141Z,1018.43
2019-02-21T01:35:39.250Z,1018.41
2019-02-21T01:36:05.359Z,1018.42
2019-02-21T01:36:31.469Z,1018.46
2019-02-21T01:36:57.593Z,1018.47
2019-02-21T01:37:23.699Z,1018.44
2019-02-21T01:37:49.808Z,1018.43
2019-02-21T01:38:15.908Z,1018.44
2019-02-21T01:38:42.034Z,1018.47
2019-02-21T01:39:08.143Z,1018.5
2019-02-21T01:39:34.251Z,1018.49
2019-02-21T01:40:00.383Z,1018.5
2019-02-21T01:40:26.521Z,1018.51
2019-02-21T01:40:52.625Z,1018.5
2019-02-21T01:41:18.731Z,1018.51
2019-02-21T01:41:44.839Z,1018.48
2019-02-21T01:42:10.950Z,1018.49
2019-02-21T01:42:37.061Z,1018.46
2019-02-21T01:43:03.170Z,1018.48
2019-02-21T01:43:29.274Z,1018.49
2019-02-21T01:43:55.381Z,1018.47
2019-02-21T01:44:21.480Z,1018.44
2019-02-21T01:44:47.592Z,1018.48
2019-02-21T01:45:13.700Z,1018.47
2019-02-21T01:45:39.806Z,1018.48
2019-02-21T01:46:05.970Z,1018.48
2019-02-21T01:46:32.103Z,1018.46
2019-02-21T01:46:58.227Z,1018.51
2019-02-21T01:47:24.336Z,1018.49
2019-02-21T01:47:50.442Z,1018.53
2019-02-21T01:48:16.543Z,1018.48
2019-02-21T01:48:43.669Z,1018.5
2019-02-21T01:49:10.005Z,1018.52
2019-02-21T01:49:36.114Z,1018.51
2019-02-21T01:50:02.247Z,1018.5
2019-02-21T01:50:28.357Z,1018.53
2019-02-21T01:50:54.462Z,1018.51
2019-02-21T01:51:20.603Z,1018.5
2019-02-21T01:51:46.716Z,1018.51
2019-02-21T01:52:12.819Z,1018.5
2019-02-21T01:52:38.949Z,1018.52
2019-02-21T01:53:05.059Z,1018.49
2019-02-21T01:53:31.191Z,1018.51
2019-02-21T01:53:57.300Z,1018.47
2019-02-21T01:54:23.406Z,1018.5
2019-02-21T01:54:49.513Z,1018.48
2019-02-21T01:55:15.622Z,1018.48
2019-02-21T01:55:41.749Z,1018.5
2019-02-21T01:56:08.120Z,1018.46
2019-02-21T01:56:34.254Z,1018.44
2019-02-21T01:57:00.360Z,1018.51
2019-02-21T01:57:26.504Z,1018.49
2019-02-21T01:57:52.613Z,1018.48
2019-02-21T01:58:18.741Z,1018.5
2019-02-21T01:58:44.906Z,1018.44
2019-02-21T01:59:11.004Z,1018.46
2019-02-21T01:59:37.141Z,1018.45
2019-02-21T02:00:03.254Z,1018.47
2019-02-21T02:00:29.410Z,1018.49
2019-02-21T02:00:55.516Z,1018.46
2019-02-21T02:01:23.598Z,1018.47
2019-02-21T02:01:49.743Z,1018.48
2019-02-21T02:02:15.933Z,1018.47
2019-02-21T02:02:42.042Z,1018.44
2019-02-21T02:03:08.173Z,1018.5
2019-02-21T02:03:34.350Z,1018.48
2019-02-21T02:04:00.406Z,1018.44
2019-02-21T02:04:26.562Z,1018.48
2019-02-21T02:04:52.664Z,1018.46
2019-02-21T02:05:18.826Z,1018.51
2019-02-21T02:05:44.932Z,1018.51
2019-02-21T02:06:11.041Z,1018.47
2019-02-21T02:06:37.176Z,1018.48
2019-02-21T02:07:03.309Z,1018.48
2019-02-21T02:07:29.414Z,1018.53
2019-02-21T02:07:55.543Z,1018.47
2019-02-21T02:08:21.702Z,1018.52
2019-02-21T02:08:47.799Z,1018.53
2019-02-21T02:09:13.908Z,1018.55
2019-02-21T02:09:40.045Z,1018.56
2019-02-21T02:10:06.153Z,1018.53
2019-02-21T02:10:32.260Z,1018.54
2019-02-21T02:10:58.365Z,1018.53
2019-02-21T02:11:24.466Z,1018.53
2019-02-21T02:11:50.609Z,1018.56
2019-02-21T02:12:16.712Z,1018.53
2019-02-21T02:12:42.824Z,1018.54
2019-02-21T02:13:08.952Z,1018.54
2019-02-21T02:13:37.042Z,1018.54
2019-02-21T02:14:03.151Z,1018.54
2019-02-21T02:14:29.285Z,1018.56
2019-02-21T02:14:55.389Z,1018.58
2019-02-21T02:15:21.502Z,1018.52
2019-02-21T02:15:47.640Z,1018.54
2019-02-21T02:16:13.743Z,1018.52
2019-02-21T02:16:39.855Z,1018.54
2019-02-21T02:17:05.961Z,1018.5
2019-02-21T02:17:32.065Z,1018.51
2019-02-21T02:17:58.174Z,1018.5
2019-02-21T02:18:24.302Z,1018.49
2019-02-21T02:18:50.414Z,1018.48
2019-02-21T02:19:16.516Z,1018.5
2019-02-21T02:19:42.625Z,1018.49
2019-02-21T02:20:08.768Z,1018.52
2019-02-21T02:20:34.875Z,1018.56
2019-02-21T02:21:00.973Z,1018.52
2019-02-21T02:21:27.079Z,1018.48
2019-02-21T02:21:53.219Z,1018.5
2019-02-21T02:22:19.338Z,1018.56
2019-02-21T02:22:45.446Z,1018.53
2019-02-21T02:23:11.578Z,1018.52
2019-02-21T02:23:37.715Z,1018.53
2019-02-21T02:24:03.818Z,1018.55
2019-02-21T02:24:29.954Z,1018.55
2019-02-21T02:24:56.059Z,1018.56
2019-02-21T02:25:22.194Z,1018.54
2019-02-21T02:25:48.297Z,1018.59
2019-02-21T02:26:14.398Z,1018.58
2019-02-21T02:26:40.511Z,1018.55
2019-02-21T02:27:06.612Z,1018.59
2019-02-21T02:27:32.721Z,1018.56
2019-02-21T02:27:58.827Z,1018.5
2019-02-21T02:28:24.936Z,1018.53
2019-02-21T02:28:51.046Z,1018.51
2019-02-21T02:29:17.177Z,1018.54
2019-02-21T02:29:43.279Z,1018.57
2019-02-21T02:30:09.446Z,1018.57
2019-02-21T02:30:35.519Z,1018.56
2019-02-21T02:31:01.741Z,1018.54
2019-02-21T02:31:29.880Z,1018.57
2019-02-21T02:31:55.985Z,1018.6
2019-02-21T02:32:23.140Z,1018.57
2019-02-21T02:32:49.246Z,1018.57
2019-02-21T02:33:15.380Z,1018.52
2019-02-21T02:33:41.483Z,1018.58
2019-02-21T02:34:07.649Z,1018.58
2019-02-21T02:34:33.754Z,1018.57
2019-02-21T02:35:00.035Z,1018.6
2019-02-21T02:35:26.102Z,1018.63
2019-02-21T02:35:52.243Z,1018.62
2019-02-21T02:36:18.355Z,1018.63
2019-02-21T02:36:44.461Z,1018.61
2019-02-21T02:37:10.574Z,1018.63
2019-02-21T02:37:36.677Z,1018.63
2019-02-21T02:38:02.876Z,1018.63
2019-02-21T02:38:29.008Z,1018.61
2019-02-21T02:38:55.117Z,1018.6
2019-02-21T02:39:21.281Z,1018.61
2019-02-21T02:39:47.441Z,1018.58
2019-02-21T02:40:13.597Z,1018.66
2019-02-21T02:40:39.707Z,1018.64
2019-02-21T02:41:05.816Z,1018.62
2019-02-21T02:41:31.927Z,1018.66
2019-02-21T02:41:58.052Z,1018.65
2019-02-21T02:42:24.158Z,1018.63
2019-02-21T02:42:50.259Z,1018.63
2019-02-21T02:43:16.404Z,1018.65
2019-02-21T02:43:42.511Z,1018.64
2019-02-21T02:44:08.649Z,1018.65
2019-02-21T02:44:34.756Z,1018.64
2019-02-21T02:45:00.910Z,1018.62
2019-02-21T02:45:27.011Z,1018.64
2019-02-21T02:45:53.150Z,1018.68
2019-02-21T02:46:19.292Z,1018.62
2019-02-21T02:46:45.418Z,1018.64
2019-02-21T02:47:11.554Z,1018.66
2019-02-21T02:47:37.654Z,1018.58
2019-02-21T02:48:03.783Z,1018.59
2019-02-21T02:48:29.942Z,1018.65
2019-02-21T02:48:56.058Z,1018.64
2019-02-21T02:49:22.202Z,1018.65
2019-02-21T02:49:48.368Z,1018.64
2019-02-21T02:50:14.468Z,1018.66
2019-02-21T02:50:40.573Z,1018.7
2019-02-21T02:51:06.685Z,1018.63
2019-02-21T02:51:32.796Z,1018.66
2019-02-21T02:51:58.932Z,1018.63
2019-02-21T02:52:25.095Z,1018.61
2019-02-21T02:52:51.200Z,1018.63
2019-02-21T02:53:17.306Z,1018.62
2019-02-21T02:53:43.419Z,1018.62
2019-02-21T02:54:09.518Z,1018.61
2019-02-21T02:54:35.631Z,1018.62
2019-02-21T02:55:01.790Z,1018.64
2019-02-21T02:55:27.894Z,1018.65
2019-02-21T02:55:54.000Z,1018.64
2019-02-21T02:56:20.129Z,1018.64
2019-02-21T02:56:46.237Z,1018.67
2019-02-21T02:57:12.343Z,1018.6
2019-02-21T02:57:38.450Z,1018.62
2019-02-21T02:58:06.474Z,1018.6
2019-02-21T02:58:31.650Z,1018.61
2019-02-21T02:58:57.779Z,1018.61
2019-02-21T02:59:23.913Z,1018.65
2019-02-21T02:59:52.051Z,1018.65
2019-02-21T03:00:18.154Z,1018.62
2019-02-21T03:00:44.289Z,1018.66
2019-02-21T03:01:10.366Z,1018.63
2019-02-21T03:01:38.452Z,1018.66
2019-02-21T03:02:04.643Z,1018.65
2019-02-21T03:02:30.797Z,1018.61
2019-02-21T03:02:57.022Z,1018.58
2019-02-21T03:03:23.216Z,1018.63
2019-02-21T03:03:49.322Z,1018.62
2019-02-21T03:04:15.466Z,1018.67
2019-02-21T03:04:41.682Z,1018.67
2019-02-21T03:05:07.813Z,1018.67
2019-02-21T03:05:33.950Z,1018.66
2019-02-21T03:06:00.060Z,1018.68
2019-02-21T03:06:26.187Z,1018.68
2019-02-21T03:06:52.306Z,1018.69
2019-02-21T03:07:18.434Z,1018.71
2019-02-21T03:07:44.562Z,1018.7
2019-02-21T03:08:10.668Z,1018.7
2019-02-21T03:08:36.829Z,1018.71
2019-02-21T03:09:02.938Z,1018.7
2019-02-21T03:09:29.040Z,1018.68
2019-02-21T03:09:55.148Z,1018.67
2019-02-21T03:10:21.437Z,1018.68
2019-02-21T03:10:47.599Z,1018.71
2019-02-21T03:11:13.677Z,1018.66
2019-02-21T03:11:39.770Z,1018.68
2019-02-21T03:12:05.906Z,1018.68
2019-02-21T03:12:32.030Z,1018.65
2019-02-21T03:12:58.142Z,1018.66
2019-02-21T03:13:24.283Z,1018.68
2019-02-21T03:13:50.496Z,1018.63
2019-02-21T03:14:16.617Z,1018.7
2019-02-21T03:14:42.748Z,1018.65
2019-02-21T03:15:08.852Z,1018.69
2019-02-21T03:15:34.956Z,1018.66
2019-02-21T03:16:01.095Z,1018.65
2019-02-21T03:16:27.202Z,1018.67
2019-02-21T03:16:53.302Z,1018.67
2019-02-21T03:17:19.409Z,1018.63
2019-02-21T03:17:45.521Z,1018.64
2019-02-21T03:18:11.654Z,1018.63
2019-02-21T03:18:37.757Z,1018.66
2019-02-21T03:19:03.856Z,1018.69
2019-02-21T03:19:29.966Z,1018.64
2019-02-21T03:19:56.125Z,1018.66
2019-02-21T03:20:22.294Z,1018.65
2019-02-21T03:20:48.432Z,1018.63
2019-02-21T03:21:14.568Z,1018.63
2019-02-21T03:21:40.675Z,1018.65
2019-02-21T03:22:06.831Z,1018.63
2019-02-21T03:22:32.939Z,1018.63
2019-02-21T03:22:59.047Z,1018.61
2019-02-21T03:23:25.149Z,1018.61
2019-02-21T03:23:51.278Z,1018.65
2019-02-21T03:24:17.408Z,1018.66
2019-02-21T03:24:43.508Z,1018.65
2019-02-21T03:25:09.640Z,1018.63
2019-02-21T03:25:35.750Z,1018.65
2019-02-21T03:26:01.915Z,1018.6
2019-02-21T03:26:28.024Z,1018.63
2019-02-21T03:26:54.128Z,1018.6
2019-02-21T03:27:20.241Z,1018.58
2019-02-21T03:27:46.346Z,1018.62
2019-02-21T03:28:12.480Z,1018.57
2019-02-21T03:28:38.642Z,1018.62
2019-02-21T03:29:04.756Z,1018.6
2019-02-21T03:29:30.914Z,1018.61
2019-02-21T03:29:57.020Z,1018.63
2019-02-21T03:30:23.559Z,1018.59
2019-02-21T03:30:49.707Z,1018.57
2019-02-21T03:31:15.909Z,1018.59
2019-02-21T03:31:53.915Z,1018.59
2019-02-21T03:32:12.093Z,1018.62
2019-02-21T03:32:38.174Z,1018.61
2019-02-21T03:33:04.309Z,1018.62
2019-02-21T03:33:30.446Z,1018.63
2019-02-21T03:33:56.611Z,1018.61
2019-02-21T03:34:22.763Z,1018.61
2019-02-21T03:34:48.887Z,1018.6
2019-02-21T03:35:15.027Z,1018.61
2019-02-21T03:35:41.158Z,1018.59
2019-02-21T03:36:07.322Z,1018.56
2019-02-21T03:36:33.461Z,1018.56
2019-02-21T03:36:59.591Z,1018.57
2019-02-21T03:37:25.744Z,1018.55
2019-02-21T03:37:51.854Z,1018.57
2019-02-21T03:38:17.989Z,1018.54
2019-02-21T03:38:45.172Z,1018.58
2019-02-21T03:39:11.298Z,1018.58
2019-02-21T03:39:37.395Z,1018.57
2019-02-21T03:40:03.505Z,1018.6
2019-02-21T03:40:29.638Z,1018.59
2019-02-21T03:40:55.768Z,1018.57
2019-02-21T03:41:21.904Z,1018.54
2019-02-21T03:41:48.008Z,1018.55
2019-02-21T03:42:14.175Z,1018.53
2019-02-21T03:42:40.311Z,1018.55
2019-02-21T03:43:06.439Z,1018.55
2019-02-21T03:43:32.548Z,1018.52
2019-02-21T03:43:58.653Z,1018.5
2019-02-21T03:44:24.868Z,1018.51
2019-02-21T03:44:50.970Z,1018.55
2019-02-21T03:45:17.140Z,1018.55
2019-02-21T03:45:43.256Z,1018.53
2019-02-21T03:46:09.368Z,1018.55
2019-02-21T03:46:35.475Z,1018.56
2019-02-21T03:47:01.640Z,1018.54
2019-02-21T03:47:27.792Z,1018.53
2019-02-21T03:47:53.972Z,1018.54
2019-02-21T03:48:20.076Z,1018.55
2019-02-21T03:48:46.173Z,1018.54
2019-02-21T03:49:12.284Z,1018.59
2019-02-21T03:49:38.418Z,1018.58
2019-02-21T03:50:04.633Z,1018.56
2019-02-21T03:50:30.774Z,1018.54
2019-02-21T03:50:56.879Z,1018.57
2019-02-21T03:51:23.035Z,1018.56
2019-02-21T03:51:49.167Z,1018.55
2019-02-21T03:52:15.266Z,1018.6
2019-02-21T03:52:41.401Z,1018.58
2019-02-21T03:53:07.501Z,1018.57
2019-02-21T03:53:33.605Z,1018.54
2019-02-21T03:53:59.717Z,1018.52
2019-02-21T03:54:25.823Z,1018.5
2019-02-21T03:54:51.927Z,1018.53
2019-02-21T03:55:18.080Z,1018.52
2019-02-21T03:55:44.186Z,1018.52
2019-02-21T03:56:10.322Z,1018.51
2019-02-21T03:56:36.394Z,1018.49
2019-02-21T03:57:02.491Z,1018.5
2019-02-21T03:57:28.605Z,1018.53
2019-02-21T03:57:54.746Z,1018.53
2019-02-21T03:58:20.844Z,1018.5
2019-02-21T03:58:46.970Z,1018.48
2019-02-21T03:59:13.108Z,1018.5
2019-02-21T03:59:39.240Z,1018.51
2019-02-21T04:00:05.385Z,1018.51
2019-02-21T04:00:31.515Z,1018.54
2019-02-21T04:00:57.627Z,1018.51
2019-02-21T04:01:23.755Z,1018.51
2019-02-21T04:01:49.894Z,1018.5
2019-02-21T04:02:17.984Z,1018.49
2019-02-21T04:02:44.136Z,1018.51
2019-02-21T04:03:10.235Z,1018.52
2019-02-21T04:03:36.344Z,1018.55
2019-02-21T04:04:02.454Z,1018.53
2019-02-21T04:04:28.587Z,1018.56
2019-02-21T04:04:54.698Z,1018.56
2019-02-21T04:05:20.803Z,1018.54
2019-02-21T04:05:46.907Z,1018.56
2019-02-21T04:06:13.036Z,1018.56
2019-02-21T04:06:39.144Z,1018.56
2019-02-21T04:07:05.250Z,1018.61
2019-02-21T04:07:32.338Z,1018.61
2019-02-21T04:07:58.449Z,1018.63
2019-02-21T04:08:24.616Z,1018.63
2019-02-21T04:08:50.741Z,1018.61
2019-02-21T04:09:16.850Z,1018.64
2019-02-21T04:09:43.006Z,1018.62
2019-02-21T04:10:09.145Z,1018.62
2019-02-21T04:10:35.267Z,1018.59
2019-02-21T04:11:01.364Z,1018.62
2019-02-21T04:11:27.500Z,1018.61
2019-02-21T04:11:53.600Z,1018.64
2019-02-21T04:12:19.775Z,1018.6
2019-02-21T04:12:45.936Z,1018.58
2019-02-21T04:13:14.339Z,1018.6
2019-02-21T04:13:39.144Z,1018.57
2019-02-21T04:14:05.281Z,1018.58
2019-02-21T04:14:31.662Z,1018.57
2019-02-21T04:14:57.767Z,1018.6
2019-02-21T04:15:23.876Z,1018.59
2019-02-21T04:15:49.981Z,1018.59
2019-02-21T04:16:16.106Z,1018.57
2019-02-21T04:16:42.229Z,1018.57
2019-02-21T04:17:08.323Z,1018.57
2019-02-21T04:17:34.487Z,1018.59
2019-02-21T04:18:00.605Z,1018.57
2019-02-21T04:18:26.711Z,1018.56
2019-02-21T04:18:52.824Z,1018.54
2019-02-21T04:19:18.985Z,1018.55
2019-02-21T04:19:45.092Z,1018.58
2019-02-21T04:20:11.228Z,1018.54
2019-02-21T04:20:37.393Z,1018.52
2019-02-21T04:21:03.510Z,1018.55
2019-02-21T04:21:29.643Z,1018.55
2019-02-21T04:21:55.809Z,1018.56
2019-02-21T04:22:21.949Z,1018.54
2019-02-21T04:22:48.053Z,1018.58
2019-02-21T04:23:14.188Z,1018.6
2019-02-21T04:23:40.296Z,1018.58
2019-02-21T04:24:06.515Z,1018.56
2019-02-21T04:24:32.625Z,1018.56
2019-02-21T04:24:58.739Z,1018.62
2019-02-21T04:25:24.863Z,1018.6
2019-02-21T04:25:50.994Z,1018.64
2019-02-21T04:26:17.100Z,1018.64
2019-02-21T04:26:43.207Z,1018.65
2019-02-21T04:27:09.336Z,1018.58
2019-02-21T04:27:35.480Z,1018.58
2019-02-21T04:28:01.601Z,1018.58
2019-02-21T04:28:27.706Z,1018.56
2019-02-21T04:28:54.811Z,1018.54
2019-02-21T04:29:20.944Z,1018.57
2019-02-21T04:29:47.047Z,1018.58
2019-02-21T04:30:13.180Z,1018.53
2019-02-21T04:30:39.300Z,1018.56
2019-02-21T04:31:05.444Z,1018.63
2019-02-21T04:31:31.568Z,1018.57
2019-02-21T04:31:57.729Z,1018.55
2019-02-21T04:32:25.844Z,1018.54
2019-02-21T04:32:51.974Z,1018.52
2019-02-21T04:33:18.084Z,1018.5
2019-02-21T04:33:44.984Z,1018.5
2019-02-21T04:34:11.111Z,1018.46
2019-02-21T04:34:37.212Z,1018.48
2019-02-21T04:35:03.349Z,1018.48
2019-02-21T04:35:29.477Z,1018.51
2019-02-21T04:35:55.593Z,1018.47
2019-02-21T04:36:23.345Z,1018.5
2019-02-21T04:36:47.886Z,1018.51
2019-02-21T04:37:13.995Z,1018.5
2019-02-21T04:37:40.131Z,1018.52
2019-02-21T04:38:06.265Z,1018.48
2019-02-21T04:38:32.366Z,1018.45
2019-02-21T04:38:58.505Z,1018.43
2019-02-21T04:39:24.606Z,1018.45
2019-02-21T04:39:50.705Z,1018.47
2019-02-21T04:40:16.806Z,1018.45
2019-02-21T04:40:42.936Z,1018.47
2019-02-21T04:41:09.070Z,1018.43
2019-02-21T04:41:35.172Z,1018.41
2019-02-21T04:42:01.282Z,1018.42
2019-02-21T04:42:27.381Z,1018.44
2019-02-21T04:42:53.512Z,1018.44
2019-02-21T04:43:19.616Z,1018.4
2019-02-21T04:43:45.726Z,1018.38
2019-02-21T04:44:11.857Z,1018.37
2019-02-21T04:44:37.962Z,1018.35
2019-02-21T04:45:04.074Z,1018.37
2019-02-21T04:45:30.183Z,1018.37
2019-02-21T04:45:56.314Z,1018.36
2019-02-21T04:46:22.445Z,1018.43
2019-02-21T04:46:48.553Z,1018.39
2019-02-21T04:47:14.657Z,1018.43
2019-02-21T04:47:40.758Z,1018.4
2019-02-21T04:48:06.892Z,1018.4
2019-02-21T04:48:32.998Z,1018.4
2019-02-21T04:48:59.109Z,1018.41
2019-02-21T04:49:25.262Z,1018.41
2019-02-21T04:49:51.339Z,1018.38
2019-02-21T04:50:17.453Z,1018.41
2019-02-21T04:50:43.580Z,1018.37
2019-02-21T04:51:10.421Z,1018.38
2019-02-21T04:51:36.496Z,1018.38
2019-02-21T04:52:02.627Z,1018.36
2019-02-21T04:52:28.759Z,1018.4
2019-02-21T04:52:54.889Z,1018.46
2019-02-21T04:53:20.992Z,1018.37
2019-02-21T04:53:47.152Z,1018.4
2019-02-21T04:54:13.283Z,1018.38
2019-02-21T04:54:39.384Z,1018.38
2019-02-21T04:55:05.509Z,1018.41
2019-02-21T04:55:31.687Z,1018.39
2019-02-21T04:55:57.741Z,1018.44
2019-02-21T04:56:23.838Z,1018.42
2019-02-21T04:56:49.941Z,1018.47
2019-02-21T04:57:16.073Z,1018.46
2019-02-21T04:57:42.242Z,1018.48
2019-02-21T04:58:08.350Z,1018.48
2019-02-21T04:58:34.456Z,1018.47
2019-02-21T04:59:00.599Z,1018.45
2019-02-21T04:59:26.751Z,1018.37
2019-02-21T04:59:52.852Z,1018.41
2019-02-21T05:00:18.967Z,1018.38
2019-02-21T05:00:45.077Z,1018.37
2019-02-21T05:01:11.213Z,1018.37
2019-02-21T05:01:40.065Z,1018.39
2019-02-21T05:02:04.498Z,1018.45
2019-02-21T05:02:30.659Z,1018.43
2019-02-21T05:02:56.800Z,1018.43
2019-02-21T05:03:22.895Z,1018.41
2019-02-21T05:03:49.005Z,1018.43
2019-02-21T05:04:15.515Z,1018.47
2019-02-21T05:04:41.648Z,1018.47
2019-02-21T05:05:07.845Z,1018.48
2019-02-21T05:05:33.913Z,1018.46
2019-02-21T05:06:00.085Z,1018.46
2019-02-21T05:06:26.423Z,1018.46
2019-02-21T05:06:52.571Z,1018.44
2019-02-21T05:07:18.699Z,1018.47
2019-02-21T05:07:44.818Z,1018.47
2019-02-21T05:08:10.977Z,1018.49
2019-02-21T05:08:37.079Z,1018.49
2019-02-21T05:09:03.204Z,1018.5
2019-02-21T05:09:30.318Z,1018.5
2019-02-21T05:09:58.177Z,1018.48
2019-02-21T05:10:23.573Z,1018.48
2019-02-21T05:10:49.725Z,1018.45
2019-02-21T05:11:15.825Z,1018.47
2019-02-21T05:11:41.959Z,1018.46
2019-02-21T05:12:08.092Z,1018.51
2019-02-21T05:12:34.235Z,1018.49
2019-02-21T05:13:00.396Z,1018.5
2019-02-21T05:13:26.500Z,1018.43
2019-02-21T05:13:52.628Z,1018.47
2019-02-21T05:14:18.744Z,1018.47
2019-02-21T05:14:44.854Z,1018.45
2019-02-21T05:15:13.908Z,1018.46
2019-02-21T05:15:38.087Z,1018.47
2019-02-21T05:16:04.200Z,1018.48
2019-02-21T05:16:30.307Z,1018.39
2019-02-21T05:16:56.443Z,1018.43
2019-02-21T05:17:22.545Z,1018.42
2019-02-21T05:17:48.657Z,1018.44